Time;durP1;ratioP1;P1;durP2;ratioP2;P2;SDS_P1;SDS_P2;PMS_P1;PMS_P2;Temp;Humidity;BMP_temperature;BMP_pressure;BME280_temperature;BME280_humidity;BME280_pressure;Samples;Min_cycle;Max_cycle;Signal;HPM_P1;HPM_P2
2022/06/30 14:25:07;;;;;;;6.95;5.80;;;40.90;39.20;;;34.05;33.22;94986.25;5031842;28;20352;-49
2022/06/30 14:27:33;;;;;;;5.22;4.68;;;40.40;35.80;;;34.03;31.89;94989.44;5006730;28;20037;-49
2022/06/30 14:30:08;;;;;;;5.60;4.90;;;40.70;33.40;;;34.07;34.65;94979.09;5007527;28;20029;-49
2022/06/30 14:32:34;;;;;;;5.22;4.65;;;40.90;32.30;;;34.05;32.49;94972.44;5006988;28;20052;-48
2022/06/30 14:35:06;;;;;;;10.00;5.45;;;40.90;31.10;;;33.98;34.45;94975.34;5026264;28;20032;-48
2022/06/30 14:37:32;;;;;;;7.57;5.03;;;40.90;30.60;;;34.02;33.76;94965.78;5024810;28;20044;-49
2022/06/30 14:40:00;;;;;;;6.90;6.22;;;40.80;30.10;;;33.82;34.35;94963.09;5027077;28;20040;-48
2022/06/30 14:42:44;;;;;;;9.20;5.90;;;40.80;29.90;;;34.07;34.90;94967.28;5038272;28;20021;-50
2022/06/30 14:45:24;;;;;;;8.93;6.07;;;41.40;29.60;;;34.77;35.31;94965.88;5024143;28;20033;-53
2022/06/30 14:47:54;;;;;;;13.63;7.18;;;42.70;29.10;;;35.31;31.88;94958.84;5026186;28;20025;-48
2022/06/30 14:50:23;;;;;;;8.20;6.32;;;43.90;28.10;;;35.83;29.45;94963.25;5024812;28;20021;-51
2022/06/30 14:52:50;;;;;;;7.15;6.53;;;44.80;27.00;;;36.23;28.66;94965.53;5022125;28;20035;-51
2022/06/30 14:55:20;;;;;;;6.95;6.45;;;45.80;26.00;;;36.63;27.32;94965.78;5008605;28;20037;-48
2022/06/30 14:57:48;;;;;;;6.43;5.83;;;46.70;24.80;;;37.04;25.96;94959.19;5023929;28;20057;-50
2022/06/30 15:00:21;;;;;;;7.32;6.68;;;47.60;24.00;;;37.32;25.26;94953.78;5023829;28;20036;-53
2022/06/30 15:02:50;;;;;;;7.32;6.65;;;48.50;23.40;;;37.60;24.49;94953.97;5023862;28;20029;-49
2022/06/30 15:05:26;;;;;;;9.05;8.25;;;49.30;22.40;;;38.03;24.54;94943.97;5024109;28;20364;-48
2022/06/30 15:07:52;;;;;;;8.57;7.70;;;50.00;21.60;;;37.05;24.81;94938.53;5025809;28;20059;-50
2022/06/30 15:10:17;;;;;;;7.95;6.82;;;50.20;20.70;;;37.63;24.73;94939.16;5024883;28;20033;-52
2022/06/30 15:12:55;;;;;;;8.05;6.28;;;49.80;20.60;;;37.54;24.20;94933.56;5025008;28;20553;-53
2022/06/30 15:15:21;;;;;;;5.72;5.22;;;49.30;20.40;;;37.67;26.52;94931.44;5021219;28;20067;-52
2022/06/30 15:17:47;;;;;;;5.03;4.60;;;48.60;21.00;;;37.37;28.02;94936.56;5019497;28;20061;-53
2022/06/30 15:20:16;;;;;;;6.53;5.13;;;47.80;21.60;;;37.18;25.35;94937.69;5021443;28;20032;-53
2022/06/30 15:25:32;;;;;;;6.35;5.72;;;48.00;20.90;;;37.30;24.77;94924.97;5025994;28;20024;-52
2022/06/30 15:28:02;;;;;;;5.82;5.35;;;49.30;20.30;;;37.33;27.15;94930.38;5025222;28;20490;-54
2022/06/30 15:30:28;;;;;;;5.25;4.80;;;49.40;20.30;;;37.12;25.75;94943.03;5025202;28;20029;-52
2022/06/30 15:32:56;;;;;;;4.63;4.20;;;48.80;20.40;;;36.78;26.00;94941.84;5026702;28;20032;-57
2022/06/30 15:35:30;;;;;;;5.22;3.70;;;47.60;20.50;;;36.33;29.59;94933.91;4989956;28;20037;-57
2022/06/30 15:38:14;;;;;;;4.65;3.65;;;46.20;21.70;;;35.77;29.20;94949.16;5010090;28;20104;-52
2022/06/30 15:40:41;;;;;;;6.93;3.65;;;44.90;22.30;;;35.08;30.16;94957.16;5012464;28;20029;-57
2022/06/30 15:43:17;;;;;;;7.15;4.28;;;43.60;23.10;;;34.53;33.71;94960.56;5012474;28;20033;-57
2022/06/30 15:45:46;;;;;;;4.05;3.65;;;42.50;24.50;;;33.99;34.60;94958.34;5010664;28;20083;-57
2022/06/30 15:48:16;;;;;;;4.82;3.45;;;41.40;25.40;;;33.45;34.96;94949.72;5010819;28;20452;-55
2022/06/30 15:50:45;;;;;;;7.07;3.70;;;40.50;26.10;;;32.84;34.82;94946.22;5012101;28;20029;-49
2022/06/30 15:53:12;;;;;;;5.38;3.13;;;39.60;26.70;;;32.45;36.03;94933.97;5010795;28;20025;-53
2022/06/30 15:55:43;;;;;;;4.93;3.50;;;38.80;27.40;;;32.02;36.59;94931.16;5010462;28;20116;-50
2022/06/30 15:58:09;;;;;;;4.57;3.10;;;38.00;28.00;;;31.60;37.60;94930.63;4995708;28;20032;-50
2022/06/30 16:00:35;;;;;;;4.43;3.35;;;37.30;28.60;;;31.17;38.96;94933.19;5010916;28;20029;-54
2022/06/30 16:03:01;;;;;;;3.83;3.28;;;36.70;29.30;;;30.72;40.74;94947.06;5012055;28;20052;-49
2022/06/30 16:05:27;;;;;;;4.88;3.53;;;36.10;30.00;;;30.42;41.39;94948.56;5011708;28;20033;-52
2022/06/30 16:07:56;;;;;;;5.38;3.70;;;35.50;31.10;;;30.05;43.00;94949.25;5012398;28;20025;-51
2022/06/30 16:10:22;;;;;;;3.53;2.72;;;35.00;32.90;;;29.72;44.13;94960.50;5010934;28;20028;-50
2022/06/30 16:12:57;;;;;;;4.43;3.13;;;34.50;33.00;;;29.33;44.79;94966.19;5011977;28;20021;-54
2022/06/30 16:15:28;;;;;;;2.78;2.58;;;34.10;34.00;;;28.93;45.79;94967.56;5011511;28;20025;-51
2022/06/30 16:17:54;;;;;;;4.77;2.97;;;33.60;34.60;;;28.53;46.98;94964.94;4986882;28;20037;-49
2022/06/30 16:20:20;;;;;;;4.65;3.20;;;33.20;35.30;;;28.28;48.01;94967.69;5009609;28;20044;-52
2022/06/30 16:22:48;;;;;;;7.38;3.35;;;32.70;36.20;;;28.16;49.49;94970.06;5010078;28;20021;-52
2022/06/30 16:25:15;;;;;;;7.30;4.22;;;32.40;37.20;;;28.00;50.48;94959.50;5010452;28;20029;-51
2022/06/30 16:27:41;;;;;;;7.35;3.70;;;32.10;38.10;;;27.83;51.11;94956.38;5010732;28;20460;-49
2022/06/30 16:30:14;;;;;;;4.90;3.42;;;31.90;38.90;;;27.66;52.68;94965.31;4977002;28;20056;-53
2022/06/30 16:32:44;;;;;;;5.22;3.35;;;31.60;39.80;;;27.45;52.52;94972.34;5009044;28;20029;-52
2022/06/30 16:35:12;;;;;;;6.07;4.20;;;31.30;40.30;;;27.28;53.55;94964.88;5004665;28;20026;-52
2022/06/30 16:37:39;;;;;;;5.95;3.60;;;31.10;41.10;;;27.14;55.15;94968.34;5006816;28;20025;-52
2022/06/30 16:40:08;;;;;;;8.35;3.80;;;30.90;41.70;;;27.00;55.31;94971.00;5004153;28;20044;-49
2022/06/30 16:42:35;;;;;;;5.72;3.80;;;30.70;42.40;;;26.86;54.06;94971.75;5007438;28;20025;-52
2022/06/30 16:45:02;;;;;;;6.28;3.78;;;30.50;42.60;;;26.70;55.00;94974.78;5008749;28;20051;-54
2022/06/30 16:47:31;;;;;;;6.45;3.53;;;30.30;42.90;;;26.56;55.63;94979.38;5007961;28;20049;-49
2022/06/30 16:49:57;;;;;;;5.43;3.67;;;30.20;43.40;;;26.41;57.12;94981.22;5009310;28;20061;-49
2022/06/30 16:52:22;;;;;;;5.40;2.97;;;30.00;43.80;;;26.26;57.43;94972.94;5009974;28;20109;-49
2022/06/30 16:54:52;;;;;;;5.95;3.75;;;29.90;44.30;;;26.12;57.71;94969.34;5008936;28;20033;-54
2022/06/30 16:57:18;;;;;;;6.20;3.60;;;29.80;44.90;;;26.02;56.34;94965.38;5009647;28;20404;-53
2022/06/30 16:59:44;;;;;;;5.65;3.50;;;29.60;44.80;;;25.91;57.41;94962.53;5008691;28;20029;-52
2022/06/30 17:02:13;;;;;;;5.32;3.60;;;29.50;45.10;;;25.80;58.38;94959.72;5010101;28;20541;-51
2022/06/30 17:04:39;;;;;;;4.22;3.35;;;29.40;45.40;;;25.74;60.21;94957.72;5008197;28;20119;-51
2022/06/30 17:07:05;;;;;;;5.60;4.43;;;29.30;46.00;;;25.64;59.53;94966.59;5010034;28;20100;-49
2022/06/30 17:09:31;;;;;;;5.38;3.38;;;29.20;46.30;;;25.54;59.71;94976.22;5010026;28;20060;-52
2022/06/30 17:11:57;;;;;;;7.68;4.05;;;29.10;46.50;;;25.29;60.87;94965.88;5010140;28;20082;-52
2022/06/30 17:14:28;;;;;;;5.65;3.55;;;29.00;46.70;;;25.14;61.56;94955.97;5008723;28;20021;-51
2022/06/30 17:16:54;;;;;;;7.10;3.58;;;28.80;47.30;;;24.98;59.68;94952.66;5009796;28;20106;-52
2022/06/30 17:19:20;;;;;;;8.52;3.97;;;28.70;47.30;;;24.86;59.96;94953.69;5008382;28;20489;-50
2022/06/30 17:21:46;;;;;;;5.50;3.40;;;28.50;47.40;;;24.62;62.60;94944.03;5008277;28;20025;-51
2022/06/30 17:24:13;;;;;;;6.55;3.20;;;28.30;47.80;;;24.30;62.47;94954.47;5008109;28;20041;-49
2022/06/30 17:26:43;;;;;;;4.70;3.95;;;28.10;48.00;;;24.21;64.03;94947.34;5009261;28;20021;-51
2022/06/30 17:29:15;;;;;;;8.57;4.45;;;28.00;48.50;;;24.10;64.26;94946.44;5008678;28;20025;-50
2022/06/30 17:31:58;;;;;;;11.13;4.05;;;27.90;49.20;;;23.90;63.71;94940.28;5008331;28;20025;-50
2022/06/30 17:34:32;;;;;;;7.32;4.10;;;27.70;49.00;;;23.66;61.47;94937.94;5009098;28;20029;-52
2022/06/30 17:37:00;;;;;;;9.93;3.65;;;27.60;48.80;;;23.71;65.93;94924.84;5007823;28;20432;-51
2022/06/30 17:39:31;;;;;;;6.00;3.75;;;27.50;49.50;;;23.69;63.65;94921.72;5007262;28;20040;-53
2022/06/30 17:41:58;;;;;;;7.57;4.03;;;27.40;49.50;;;23.65;63.75;94918.13;5000400;28;20025;-52
2022/06/30 17:44:27;;;;;;;5.90;3.50;;;27.30;49.70;;;23.59;65.04;94933.16;4999301;28;20039;-52
2022/06/30 17:46:53;;;;;;;5.72;4.32;;;27.30;50.10;;;23.47;64.17;94923.28;5012342;28;20017;-52
2022/06/30 17:49:19;;;;;;;4.95;3.75;;;27.20;50.00;;;23.45;63.90;94932.94;4994843;28;20029;-50
2022/06/30 17:51:45;;;;;;;6.78;3.47;;;27.10;50.00;;;23.47;62.67;94938.78;5013060;28;20115;-53
2022/06/30 17:54:11;;;;;;;6.30;3.42;;;27.00;49.90;;;23.49;64.14;94958.25;5015232;28;20622;-48
2022/06/30 17:56:39;;;;;;;6.20;3.65;;;27.00;50.20;;;23.49;63.14;94961.75;5010786;28;20065;-50
2022/06/30 17:59:10;;;;;;;6.25;4.10;;;27.00;50.20;;;23.53;63.58;94972.66;5005010;28;20033;-52
2022/06/30 18:01:36;;;;;;;5.95;3.65;;;27.00;50.40;;;23.51;64.42;94983.91;4989880;28;20036;-52
2022/06/30 18:04:04;;;;;;;4.45;3.72;;;27.00;50.50;;;23.51;63.40;94992.06;5006470;28;20033;-51
2022/06/30 18:12:00;;;;;;;5.85;3.72;;;27.10;50.20;;;23.64;60.81;95006.25;5008023;28;20044;-54
2022/06/30 18:14:29;;;;;;;9.05;4.45;;;27.00;50.00;;;23.64;60.47;95013.63;5009053;28;20044;-50
2022/06/30 18:16:55;;;;;;;5.97;4.05;;;27.10;50.00;;;23.70;60.22;95007.56;5007564;28;20052;-50
2022/06/30 18:19:25;;;;;;;8.80;3.80;;;27.10;49.80;;;23.71;59.95;95003.69;5002891;28;20067;-51
2022/06/30 18:21:52;;;;;;;8.25;4.35;;;27.10;49.70;;;23.76;59.53;95014.28;5008375;28;20401;-51
2022/06/30 18:24:21;;;;;;;7.68;4.25;;;27.10;49.50;;;23.77;59.36;95015.84;5004136;28;20416;-50
2022/06/30 18:26:46;;;;;;;8.75;4.65;;;27.20;49.50;;;23.78;59.60;95027.50;5001996;28;20391;-50
2022/06/30 18:29:12;;;;;;;6.40;4.13;;;27.20;49.30;;;23.73;59.99;95035.97;4991564;28;20040;-49
2022/06/30 18:31:38;;;;;;;8.23;4.50;;;27.20;49.30;;;23.73;60.25;95058.50;5009141;28;20032;-51
2022/06/30 18:34:05;;;;;;;4.53;4.03;;;27.10;49.30;;;23.69;59.42;95056.84;5003958;28;20033;-50
2022/06/30 18:36:31;;;;;;;11.00;3.80;;;27.20;49.30;;;23.62;58.29;95062.13;5008482;28;20024;-53
2022/06/30 18:38:58;;;;;;;7.80;3.53;;;27.10;49.10;;;23.48;58.07;95071.59;5008842;28;20033;-50
2022/06/30 18:41:27;;;;;;;5.80;3.50;;;27.10;48.90;;;23.33;58.65;95067.03;5007708;28;20022;-54
2022/06/30 18:44:04;;;;;;;8.02;3.65;;;27.00;48.70;;;23.21;59.50;95067.97;4991580;28;20121;-54
2022/06/30 18:46:34;;;;;;;7.22;3.72;;;27.00;48.80;;;23.06;60.58;95066.09;5023687;28;20017;-53
2022/06/30 18:49:05;;;;;;;5.47;3.72;;;26.90;48.90;;;22.79;62.46;95071.34;5006706;28;20133;-55
2022/06/30 18:51:33;;;;;;;10.50;4.38;;;26.80;49.00;;;22.62;63.79;95079.88;4991808;28;20025;-54
2022/06/30 18:54:05;;;;;;;6.57;4.13;;;26.70;49.40;;;22.40;65.13;95082.09;5008455;28;20102;-56
2022/06/30 18:56:40;;;;;;;7.80;4.15;;;26.50;49.80;;;22.26;65.90;95095.31;5007171;28;20037;-55
2022/06/30 18:59:06;;;;;;;12.65;4.43;;;26.40;50.30;;;22.22;66.35;95088.22;5008590;28;20033;-56
2022/06/30 19:01:51;;;;;;;6.32;3.88;;;26.30;50.50;;;22.11;66.68;95079.81;5008729;28;20113;-54
2022/06/30 19:04:17;;;;;;;7.25;4.90;;;26.10;50.70;;;21.95;66.81;95085.22;4995376;28;20071;-56
2022/06/30 19:06:46;;;;;;;5.22;3.50;;;26.00;50.90;;;21.80;67.16;95083.28;5008470;28;20486;-51
2022/06/30 19:09:18;;;;;;;4.20;3.65;;;25.90;51.20;;;21.65;67.68;95091.03;5007202;28;20042;-55
2022/06/30 19:11:44;;;;;;;6.40;4.10;;;25.70;51.50;;;21.55;68.05;95090.75;5027183;28;20013;-55
2022/06/30 19:14:10;;;;;;;8.25;3.78;;;25.60;51.50;;;21.40;68.08;95097.72;5012052;28;20044;-55
2022/06/30 19:16:36;;;;;;;7.30;3.30;;;25.50;51.80;;;21.26;68.45;95109.69;5011621;28;20044;-55
2022/06/30 19:19:02;;;;;;;7.18;3.45;;;25.40;52.00;;;21.06;68.32;95121.50;5019619;28;20034;-55
2022/06/30 19:21:32;;;;;;;4.85;3.65;;;25.30;52.10;;;20.91;69.02;95135.75;5010488;28;20530;-56
2022/06/30 19:24:00;;;;;;;4.93;3.47;;;25.10;52.30;;;20.68;69.55;95157.06;5011954;28;20059;-56
2022/06/30 19:26:29;;;;;;;4.07;3.03;;;25.00;52.60;;;20.53;70.36;95177.50;5011208;28;20029;-56
2022/06/30 19:29:00;;;;;;;4.80;3.30;;;24.80;52.80;;;20.33;71.28;95193.44;5009699;28;20116;-51
2022/06/30 19:31:26;;;;;;;6.28;3.20;;;24.70;53.30;;;20.34;71.59;95207.75;5010852;28;20033;-54
2022/06/30 19:33:55;;;;;;;5.30;3.00;;;24.50;53.40;;;20.39;72.05;95221.06;5009640;28;20510;-56
2022/06/30 19:36:24;;;;;;;7.50;3.35;;;24.40;53.70;;;20.19;74.40;95241.63;5010816;28;20048;-55
2022/06/30 19:38:54;;;;;;;12.18;4.32;;;24.40;54.50;;;19.98;78.47;95271.41;5009975;28;20075;-54
2022/06/30 19:41:21;;;;;;;13.43;5.15;;;24.10;55.40;;;19.33;82.30;95286.31;5007046;28;20472;-51
2022/06/30 19:43:47;;;;;;;23.75;5.43;;;23.80;56.70;;;18.80;85.79;95290.41;5010651;28;20112;-49
2022/06/30 19:46:13;;;;;;;16.40;6.28;;;23.50;57.70;;;18.47;88.85;95324.13;4993485;28;20025;-55
2022/06/30 19:48:51;;;;;;;13.55;6.57;;;23.00;58.70;;;18.25;89.64;95314.31;5007514;28;20029;-51
2022/06/30 19:51:17;;;;;;;16.92;7.15;;;22.70;59.80;;;17.98;91.04;95296.59;5011515;28;20112;-53
2022/06/30 19:53:44;;;;;;;24.48;7.63;;;22.40;60.70;;;17.90;92.20;95302.78;5011709;28;20094;-52
2022/06/30 19:56:15;;;;;;;19.55;8.52;;;22.10;61.50;;;17.78;93.28;95313.41;5010853;28;20104;-54
2022/06/30 19:58:45;;;;;;;34.13;10.10;;;21.90;62.60;;;17.72;94.14;95346.97;5010480;28;20033;-54
2022/06/30 20:01:12;;;;;;;24.17;9.95;;;21.70;63.00;;;17.66;94.49;95377.84;5011276;28;20036;-54
2022/06/30 20:06:34;;;;;;;16.13;9.57;;;21.40;64.60;;;17.61;95.29;95437.22;5011220;28;20036;-53
2022/06/30 20:11:50;;;;;;;17.90;10.00;;;21.30;65.20;;;17.64;95.50;95485.88;5011362;28;20392;-55
2022/06/30 20:14:22;;;;;;;17.40;10.97;;;21.20;66.00;;;17.64;95.46;95493.16;5026221;28;20766;-54
2022/06/30 20:16:48;;;;;;;21.87;11.13;;;21.20;66.40;;;17.65;95.52;95492.88;5025975;28;20013;-50
2022/06/30 20:19:17;;;;;;;17.15;11.13;;;21.20;66.40;;;17.63;95.53;95495.06;5011945;28;20033;-53
